Time;durP1;ratioP1;P1;durP2;ratioP2;P2;SDS_P1;SDS_P2;PMS_P1;PMS_P2;Temp;Humidity;BMP_temperature;BMP_pressure;BME280_temperature;BME280_humidity;BME280_pressure;Samples;Min_cycle;Max_cycle;Signal;HPM_P1;HPM_P2
2021/12/20 00:01:48;;;;;;;;;34.00;32.20;;;;;4.33;68.96;99149.97;4947833;29;8862;-70
2021/12/20 00:04:17;;;;;;;;;42.25;38.25;;;;;4.14;69.83;99144.50;4947853;29;8855;-70
2021/12/20 00:06:46;;;;;;;;;36.00;29.75;;;;;4.31;69.04;99155.16;4947661;29;8859;-68
2021/12/20 00:09:15;;;;;;;;;38.75;31.75;;;;;4.16;69.95;99150.56;4963483;28;8953;-69
2021/12/20 00:11:45;;;;;;;;;35.25;31.50;;;;;4.03;70.63;99158.91;4947735;29;9082;-68
2021/12/20 00:14:14;;;;;;;;;32.25;29.75;;;;;4.20;69.67;99160.09;4963823;28;8876;-67
2021/12/20 00:16:42;;;;;;;;;33.00;28.75;;;;;4.04;70.66;99161.50;4966713;28;8880;-69
2021/12/20 00:19:11;;;;;;;;;31.00;26.40;;;;;4.24;70.12;99156.72;4982397;28;8884;-68
2021/12/20 00:21:39;;;;;;;;;36.60;33.80;;;;;4.35;69.03;99164.69;5013551;28;9929;-69
2021/12/20 00:24:08;;;;;;;;;35.00;30.80;;;;;4.38;69.49;99163.84;5006085;28;8847;-70
2021/12/20 00:26:37;;;;;;;;;33.50;29.75;;;;;4.33;69.91;99175.78;5008154;28;8870;-70
2021/12/20 00:29:07;;;;;;;;;26.60;22.60;;;;;4.37;68.92;99167.28;5008074;28;8846;-69
2021/12/20 00:31:35;;;;;;;;;34.60;30.40;;;;;4.41;69.37;99169.94;5008498;28;8890;-67
2021/12/20 00:34:04;;;;;;;;;26.60;26.00;;;;;4.27;69.35;99155.91;4999261;28;8856;-68
2021/12/20 00:36:33;;;;;;;;;35.40;29.40;;;;;4.30;69.95;99158.56;5019928;28;8829;-68
2021/12/20 00:41:48;;;;;;;;;29.40;26.40;;;;;3.92;71.33;99173.31;4988348;28;8989;-70
2021/12/20 00:44:18;;;;;;;;;30.80;26.80;;;;;4.06;70.17;99174.44;4988297;28;8852;-69
2021/12/20 00:46:55;;;;;;;;;29.50;25.50;;;;;4.00;70.66;99179.47;4988383;28;8906;-69
2021/12/20 00:49:23;;;;;;;;;26.60;25.40;;;;;4.08;70.76;99178.81;5002917;28;8887;-69
2021/12/20 00:51:52;;;;;;;;;26.20;25.40;;;;;3.95;70.75;99181.09;4989879;28;8856;-68
2021/12/20 00:54:21;;;;;;;;;29.50;25.00;;;;;3.93;71.25;99193.94;4991583;28;8871;-69
2021/12/20 00:56:49;;;;;;;;;29.80;25.40;;;;;3.67;72.34;99191.72;4991947;28;8872;-70
2021/12/20 00:59:19;;;;;;;;;17.60;17.00;;;;;3.67;72.33;99198.59;4991684;28;8841;-68
2021/12/20 01:01:48;;;;;;;;;28.40;25.00;;;;;3.84;71.96;99191.22;4991543;28;8845;-69
2021/12/20 01:04:17;;;;;;;;;32.00;26.80;;;;;3.87;71.39;99199.00;4991508;28;8861;-69
2021/12/20 01:06:45;;;;;;;;;24.60;22.00;;;;;3.88;71.44;99187.84;4991657;28;9003;-68
2021/12/20 01:09:14;;;;;;;;;22.20;18.00;;;;;3.94;71.27;99195.72;4991749;28;8871;-70
2021/12/20 01:11:49;;;;;;;;;33.80;28.00;;;;;3.73;71.36;99200.44;4991832;28;8849;-67
2021/12/20 01:14:23;;;;;;;;;26.20;21.40;;;;;3.88;71.38;99188.72;5022788;28;8849;-69
2021/12/20 01:16:54;;;;;;;;;23.20;20.60;;;;;4.13;70.33;99191.78;4991457;28;8872;-68
2021/12/20 01:19:25;;;;;;;;;26.80;24.60;;;;;4.01;70.32;99189.84;4991079;28;8864;-70
2021/12/20 01:21:53;;;;;;;;;31.80;30.00;;;;;4.17;70.04;99188.41;4991757;28;8840;-70
2021/12/20 01:24:23;;;;;;;;;24.80;22.80;;;;;4.07;70.43;99195.09;4991520;28;8981;-68
2021/12/20 01:26:52;;;;;;;;;29.20;26.40;;;;;3.87;71.31;99191.25;5005313;28;8841;-68
2021/12/20 01:29:22;;;;;;;;;25.80;21.80;;;;;3.94;70.84;99205.16;4991251;28;8861;-69
2021/12/20 01:31:51;;;;;;;;;24.80;24.20;;;;;3.66;71.88;99189.97;4991309;28;8836;-68
2021/12/20 01:34:20;;;;;;;;;23.60;23.60;;;;;3.53;73.22;99197.41;4990881;28;8852;-70
2021/12/20 01:36:49;;;;;;;;;21.80;18.20;;;;;3.77;72.38;99195.34;5021610;28;8845;-69
2021/12/20 01:39:17;;;;;;;;;21.80;20.00;;;;;3.61;72.48;99204.50;5006475;28;8979;-69
2021/12/20 01:41:46;;;;;;;;;22.60;18.60;;;;;3.74;72.65;99204.72;5010444;28;8842;-69
2021/12/20 01:44:15;;;;;;;;;24.40;24.00;;;;;3.93;71.30;99195.66;5010408;28;9596;-70
2021/12/20 01:46:45;;;;;;;;;24.00;23.20;;;;;3.75;72.27;99191.88;5010325;28;8850;-68
2021/12/20 01:49:16;;;;;;;;;27.00;24.80;;;;;3.80;72.44;99194.53;5010840;28;8858;-69
2021/12/20 01:52:00;;;;;;;;;19.00;13.20;;;;;3.95;71.55;99191.41;5010154;28;8939;-68
2021/12/20 01:54:29;;;;;;;;;14.20;13.20;;;;;4.16;71.00;99189.28;5010303;28;8882;-69
2021/12/20 01:56:58;;;;;;;;;19.40;18.60;;;;;4.33;69.89;99178.38;4997507;28;8879;-68
2021/12/20 01:59:28;;;;;;;;;21.80;20.20;;;;;4.55;68.91;99182.22;4990996;28;8849;-68
2021/12/20 02:01:58;;;;;;;;;21.80;18.80;;;;;4.57;68.75;99190.88;5004250;28;8876;-69
2021/12/20 02:04:27;;;;;;;;;23.00;20.00;;;;;4.82;68.04;99182.72;4990672;28;8880;-68
2021/12/20 02:06:58;;;;;;;;;19.80;19.60;;;;;4.72;68.36;99192.84;4990591;28;8849;-68
2021/12/20 02:09:26;;;;;;;;;19.40;19.40;;;;;4.78;67.73;99191.25;4990517;28;8832;-69
2021/12/20 02:11:55;;;;;;;;;21.40;20.60;;;;;4.51;68.29;99183.88;4990536;28;8861;-68
2021/12/20 02:14:23;;;;;;;;;24.40;22.00;;;;;4.47;68.58;99189.84;4990418;28;8927;-70
2021/12/20 02:16:52;;;;;;;;;19.80;19.00;;;;;4.43;68.80;99194.06;4990526;28;8876;-69
2021/12/20 02:19:22;;;;;;;;;22.00;21.40;;;;;4.58;68.83;99180.56;5022167;28;8856;-69
2021/12/20 02:21:52;;;;;;;;;27.40;23.00;;;;;4.61;68.39;99177.16;5003875;28;8891;-69
2021/12/20 02:24:21;;;;;;;;;25.20;22.40;;;;;4.30;69.07;99184.34;4990337;28;8848;-68
2021/12/20 02:26:50;;;;;;;;;21.60;20.20;;;;;4.40;68.93;99172.50;4990325;28;8879;-67
2021/12/20 02:29:27;;;;;;;;;31.60;22.60;;;;;4.55;68.70;99174.47;5004101;28;8912;-70
2021/12/20 02:37:31;;;;;;;;;17.00;16.60;;;;;4.88;67.08;99179.34;5009530;28;8850;-68
2021/12/20 02:40:00;;;;;;;;;21.00;18.80;;;;;4.44;68.49;99167.44;4999252;28;8879;-69
2021/12/20 02:42:33;;;;;;;;;18.80;17.80;;;;;4.51;67.69;99176.13;4989675;28;8879;-69
2021/12/20 02:47:49;;;;;;;;;15.80;14.40;;;;;4.55;68.05;99177.91;4990970;28;8910;-68
2021/12/20 02:50:18;;;;;;;;;20.00;17.40;;;;;4.53;67.77;99177.03;4989521;28;8871;-69
2021/12/20 02:52:48;;;;;;;;;19.20;11.40;;;;;3.99;70.12;99182.88;4989726;28;8968;-68
2021/12/20 02:55:18;;;;;;;;;23.20;18.80;;;;;4.37;68.60;99188.81;5020815;28;8900;-68
2021/12/20 02:57:47;;;;;;;;;22.20;20.00;;;;;4.27;68.92;99195.50;4989401;28;8841;-68
2021/12/20 03:00:16;;;;;;;;;17.20;17.20;;;;;4.37;68.39;99175.03;4989742;28;8934;-69
2021/12/20 03:02:45;;;;;;;;;25.20;21.00;;;;;4.53;68.17;99171.00;4989549;28;9034;-70
2021/12/20 03:05:14;;;;;;;;;20.80;18.80;;;;;4.40;67.96;99182.81;4989507;28;8849;-68
2021/12/20 03:07:47;;;;;;;;;10.40;9.40;;;;;4.36;68.60;99187.06;4989457;28;8958;-69
2021/12/20 03:10:20;;;;;;;;;18.80;15.00;;;;;4.41;67.91;99182.84;4989394;28;8860;-69
2021/12/20 03:12:53;;;;;;;;;20.60;18.60;;;;;4.40;68.74;99195.72;5020178;28;8861;-68
2021/12/20 03:15:24;;;;;;;;;13.80;13.80;;;;;4.45;68.26;99188.94;5003552;28;8903;-68
2021/12/20 03:17:54;;;;;;;;;17.40;16.20;;;;;4.32;68.49;99190.41;4989468;28;8869;-67
2021/12/20 03:20:24;;;;;;;;;17.80;15.80;;;;;4.45;68.21;99189.81;4989287;28;9591;-70
2021/12/20 03:22:53;;;;;;;;;19.00;14.40;;;;;4.58;67.66;99193.47;4989312;28;8942;-70
2021/12/20 03:25:23;;;;;;;;;14.40;14.40;;;;;4.64;67.13;99185.84;4989639;28;8883;-69
2021/12/20 03:27:52;;;;;;;;;23.60;18.00;;;;;4.49;68.01;99195.91;4989126;28;8844;-69
2021/12/20 03:30:22;;;;;;;;;18.20;18.20;;;;;4.56;67.49;99192.59;4989061;28;8848;-69
2021/12/20 03:32:50;;;;;;;;;13.80;13.60;;;;;4.56;67.32;99190.00;4989034;28;8878;-70
2021/12/20 03:35:19;;;;;;;;;20.60;18.60;;;;;4.63;67.64;99188.38;4989428;28;8857;-69
2021/12/20 03:37:48;;;;;;;;;14.60;12.00;;;;;4.59;67.33;99189.19;4987404;28;8880;-69
2021/12/20 03:40:18;;;;;;;;;15.00;14.40;;;;;4.59;67.53;99202.94;5020469;28;8943;-69
2021/12/20 03:42:48;;;;;;;;;19.80;16.20;;;;;4.42;68.08;99194.03;4989069;28;8864;-68
2021/12/20 03:45:17;;;;;;;;;21.60;16.60;;;;;4.56;67.61;99195.16;4989111;28;8927;-67
2021/12/20 03:47:46;;;;;;;;;19.00;15.40;;;;;4.60;66.87;99202.13;4988745;28;9650;-69
2021/12/20 03:50:16;;;;;;;;;20.60;14.60;;;;;4.51;67.03;99207.13;4988847;28;8860;-68
2021/12/20 03:52:45;;;;;;;;;13.80;13.80;;;;;4.55;67.41;99198.56;5020465;28;8873;-68
2021/12/20 03:55:15;;;;;;;;;19.80;17.80;;;;;4.64;66.81;99219.41;5002826;28;8861;-68
2021/12/20 03:57:44;;;;;;;;;12.80;12.40;;;;;4.53;67.34;99204.56;4988736;28;9701;-68
2021/12/20 04:00:16;;;;;;;;;16.20;15.40;;;;;4.71;66.65;99198.84;5002936;28;9570;-69
2021/12/20 04:02:47;;;;;;;;;14.40;11.80;;;;;4.58;66.68;99206.41;4988891;28;8845;-68
2021/12/20 04:05:16;;;;;;;;;12.40;11.40;;;;;4.61;66.97;99208.16;4989238;28;8857;-70
2021/12/20 04:07:45;;;;;;;;;16.80;15.00;;;;;4.75;66.48;99211.00;4988827;28;9002;-69
2021/12/20 04:10:14;;;;;;;;;5.20;5.20;;;;;4.54;67.40;99208.88;4988938;28;8849;-68
2021/12/20 04:12:43;;;;;;;;;14.40;12.00;;;;;4.78;66.60;99206.75;4988766;28;8875;-67
2021/12/20 04:15:14;;;;;;;;;11.00;8.60;;;;;4.76;65.76;99202.38;4989067;28;8989;-69
2021/12/20 04:17:43;;;;;;;;;15.40;12.80;;;;;4.68;66.76;99210.00;4988757;28;8925;-69
2021/12/20 04:20:12;;;;;;;;;15.00;14.20;;;;;4.79;65.88;99211.06;4970803;28;8841;-68
2021/12/20 04:22:41;;;;;;;;;12.40;11.20;;;;;4.54;66.75;99198.53;4988814;28;8868;-70
2021/12/20 04:25:10;;;;;;;;;8.40;8.20;;;;;4.53;66.69;99199.41;5040005;28;8869;-69
2021/12/20 04:27:39;;;;;;;;;11.00;9.80;;;;;4.72;66.06;99201.47;4992439;28;8879;-68
2021/12/20 04:30:11;;;;;;;;;10.60;9.60;;;;;4.84;66.21;99203.41;4992145;28;8865;-68
2021/12/20 04:32:43;;;;;;;;;43.75;40.00;;;;;4.78;66.01;99211.91;4992123;28;8852;-70
2021/12/20 04:35:15;;;;;;;;;11.20;11.20;;;;;4.79;65.71;99212.78;4992069;28;8857;-69
2021/12/20 04:37:46;;;;;;;;;17.40;17.40;;;;;4.69;65.87;99210.03;5006231;28;8857;-68
2021/12/20 04:40:19;;;;;;;;;15.80;15.20;;;;;4.61;65.88;99216.78;4992239;28;8869;-69
2021/12/20 04:42:47;;;;;;;;;19.60;18.40;;;;;4.75;66.15;99222.19;5023662;28;8853;-68
2021/12/20 04:45:17;;;;;;;;;19.00;13.80;;;;;4.82;65.76;99229.22;4991787;28;8907;-69
2021/12/20 04:47:47;;;;;;;;;14.40;13.60;;;;;4.61;66.40;99226.22;4991946;28;8865;-69
2021/12/20 04:50:17;;;;;;;;;16.40;15.60;;;;;4.80;65.78;99220.56;4991921;28;9595;-67
2021/12/20 04:52:46;;;;;;;;;17.60;13.20;;;;;4.91;65.42;99218.13;4991666;28;8878;-68
2021/12/20 04:55:15;;;;;;;;;9.40;9.40;;;;;4.70;65.84;99228.97;4991800;28;8869;-69
2021/12/20 04:57:45;;;;;;;;;12.80;9.40;;;;;4.85;65.31;99224.06;4991853;28;8848;-69
2021/12/20 05:00:17;;;;;;;;;14.40;10.40;;;;;4.95;65.10;99229.41;4991469;28;8873;-69
2021/12/20 05:02:47;;;;;;;;;15.00;11.60;;;;;4.84;64.91;99226.66;4991962;28;9676;-68
2021/12/20 05:05:17;;;;;;;;;13.20;12.00;;;;;4.41;66.32;99220.72;4991570;28;8868;-68
2021/12/20 05:07:46;;;;;;;;;11.20;9.40;;;;;4.42;66.74;99225.00;4989142;28;8860;-69
2021/12/20 05:10:26;;;;;;;;;12.60;11.40;;;;;4.51;65.95;99235.53;5022724;28;8942;-68
2021/12/20 05:12:57;;;;;;;;;17.80;13.00;;;;;4.50;65.97;99231.22;5022895;28;8903;-69
2021/12/20 05:15:27;;;;;;;;;18.00;16.40;;;;;4.57;66.15;99229.59;4991341;28;8867;-69
2021/12/20 05:17:58;;;;;;;;;12.80;11.80;;;;;4.37;66.23;99231.81;5022926;28;8856;-69
2021/12/20 05:20:27;;;;;;;;;18.40;15.40;;;;;4.29;67.22;99239.38;4991268;28;8891;-70
2021/12/20 05:22:57;;;;;;;;;14.80;13.80;;;;;4.22;67.24;99250.47;4991161;28;8868;-68
2021/12/20 05:25:26;;;;;;;;;12.00;11.60;;;;;4.19;67.74;99246.09;4990804;28;9578;-69
2021/12/20 05:27:56;;;;;;;;;11.60;11.00;;;;;4.13;67.73;99258.88;4991482;28;8946;-69
2021/12/20 05:30:24;;;;;;;;;10.40;7.20;;;;;4.27;67.08;99243.66;4989068;28;8865;-68
2021/12/20 05:32:53;;;;;;;;;10.00;9.80;;;;;4.16;67.86;99248.63;4991200;28;8978;-69
2021/12/20 05:35:24;;;;;;;;;15.20;12.00;;;;;4.15;67.75;99259.78;4990132;28;8954;-68
2021/12/20 05:37:52;;;;;;;;;52.00;45.75;;;;;4.32;67.85;99247.22;5022323;28;8891;-70
2021/12/20 05:40:22;;;;;;;;;9.00;9.00;;;;;4.21;67.40;99261.59;5022318;28;8857;-68
2021/12/20 05:42:50;;;;;;;;;10.20;9.20;;;;;4.18;68.22;99258.94;4990695;28;8860;-69
2021/12/20 05:45:21;;;;;;;;;12.80;10.20;;;;;4.03;67.98;99255.22;4990973;28;8872;-69
2021/12/20 05:47:49;;;;;;;;;12.40;10.60;;;;;3.87;68.97;99269.50;4990755;28;8923;-70
2021/12/20 05:50:20;;;;;;;;;17.20;15.80;;;;;3.77;68.73;99266.69;4990349;28;8926;-69
2021/12/20 05:52:50;;;;;;;;;4.60;4.00;;;;;3.39;70.81;99272.72;4990469;28;8955;-70
2021/12/20 05:55:20;;;;;;;;;8.40;8.40;;;;;3.51;70.58;99275.56;4990367;28;8845;-68
2021/12/20 05:57:49;;;;;;;;;11.20;10.60;;;;;3.50;71.13;99285.88;5004284;28;8857;-68
2021/12/20 06:00:20;;;;;;;;;9.40;9.40;;;;;3.46;70.05;99295.22;5021601;28;8853;-68
2021/12/20 06:02:52;;;;;;;;;11.60;9.60;;;;;3.25;71.34;99298.16;4990293;28;8883;-69
2021/12/20 06:05:21;;;;;;;;;10.00;8.40;;;;;3.18;71.59;99313.44;4990189;28;8873;-70
2021/12/20 06:07:51;;;;;;;;;11.40;9.20;;;;;3.05;72.32;99304.50;4990233;28;8864;-69
2021/12/20 06:10:20;;;;;;;;;18.20;15.80;;;;;3.07;72.70;99300.28;5021622;28;8868;-69
2021/12/20 06:12:49;;;;;;;;;11.80;10.00;;;;;3.01;72.82;99321.59;4989872;28;8860;-69
2021/12/20 06:15:18;;;;;;;;;12.20;10.60;;;;;2.95;72.88;99318.88;5021062;28;8971;-69
2021/12/20 06:17:46;;;;;;;;;12.20;12.20;;;;;2.92;73.38;99334.22;5021295;28;8891;-70
2021/12/20 06:20:15;;;;;;;;;14.40;13.60;;;;;2.97;73.41;99329.19;4990130;28;8848;-68
2021/12/20 06:22:44;;;;;;;;;10.80;10.40;;;;;2.91;73.30;99328.22;4989591;28;8844;-68
2021/12/20 06:25:15;;;;;;;;;13.20;12.60;;;;;2.98;73.26;99330.94;4989473;28;8886;-69
2021/12/20 06:27:44;;;;;;;;;12.60;10.80;;;;;2.88;73.87;99343.56;4989267;28;8861;-69
2021/12/20 06:30:13;;;;;;;;;20.00;15.00;;;;;2.87;74.25;99341.84;4955070;28;8844;-70
2021/12/20 06:32:44;;;;;;;;;10.20;10.20;;;;;3.04;73.53;99333.66;4989568;28;8975;-68
2021/12/20 06:35:32;;;;;;;;;14.00;8.20;;;;;2.84;74.30;99340.88;5006463;28;8827;-69
2021/12/20 06:38:03;;;;;;;;;11.40;11.00;;;;;2.80;74.49;99345.06;4958047;28;8954;-69
2021/12/20 06:40:34;;;;;;;;;16.40;9.20;;;;;2.81;74.89;99357.09;5006103;28;8852;-69
2021/12/20 06:43:05;;;;;;;;;16.40;14.00;;;;;2.82;74.82;99360.56;5006572;28;8859;-70
2021/12/20 06:45:35;;;;;;;;;13.00;13.00;;;;;2.81;75.15;99359.69;5006585;28;8856;-69
2021/12/20 06:48:04;;;;;;;;;14.00;10.80;;;;;2.89;75.07;99362.47;5005410;28;8860;-70
2021/12/20 06:50:33;;;;;;;;;6.80;5.00;;;;;2.82;75.11;99363.16;5006429;28;8847;-70
2021/12/20 06:53:02;;;;;;;;;14.00;13.20;;;;;2.80;75.19;99357.94;5005759;28;8890;-71
2021/12/20 06:55:31;;;;;;;;;13.40;12.40;;;;;2.87;74.98;99372.75;5006115;28;8852;-70
2021/12/20 06:58:01;;;;;;;;;10.00;8.00;;;;;2.95;74.97;99372.94;4989522;28;8894;-70
2021/12/20 07:00:31;;;;;;;;;6.20;6.20;;;;;2.91;74.86;99374.56;5005737;28;8863;-69
2021/12/20 07:03:00;;;;;;;;;9.20;7.00;;;;;2.90;75.18;99377.97;5005610;28;8879;-71
2021/12/20 07:05:29;;;;;;;;;7.60;7.60;;;;;2.93;74.64;99383.19;4989672;28;8866;-70
2021/12/20 07:07:58;;;;;;;;;7.60;7.60;;;;;2.99;74.48;99379.06;4987408;28;8934;-69
2021/12/20 07:10:26;;;;;;;;;6.00;5.80;;;;;2.89;74.86;99388.22;5005854;28;8840;-69
2021/12/20 07:12:55;;;;;;;;;7.60;7.60;;;;;2.84;74.96;99385.53;5005603;28;8886;-69
2021/12/20 07:15:26;;;;;;;;;8.00;8.00;;;;;2.89;75.04;99388.22;5022614;28;9848;-70
2021/12/20 07:17:55;;;;;;;;;8.00;8.00;;;;;2.80;75.27;99398.25;5005903;28;8945;-69
2021/12/20 07:20:24;;;;;;;;;8.80;8.20;;;;;2.80;75.27;99404.28;5005734;28;9062;-69
2021/12/20 07:22:53;;;;;;;;;13.60;11.00;;;;;2.80;75.62;99411.13;5005885;28;8872;-67
2021/12/20 07:25:22;;;;;;;;;16.00;12.40;;;;;2.87;75.15;99411.38;5006253;28;8858;-68
2021/12/20 07:27:52;;;;;;;;;17.00;13.40;;;;;2.88;75.74;99419.97;5005646;28;8847;-71
2021/12/20 07:30:22;;;;;;;;;17.20;16.00;;;;;2.70;76.33;99410.88;5005146;28;8905;-69
2021/12/20 07:32:51;;;;;;;;;13.00;13.00;;;;;2.71;76.88;99412.63;5005837;28;8885;-69
2021/12/20 07:35:22;;;;;;;;;15.80;13.80;;;;;2.72;77.08;99403.19;5005720;28;8887;-68
2021/12/20 07:37:53;;;;;;;;;9.00;8.60;;;;;2.71;77.26;99411.75;5005667;28;8856;-69
2021/12/20 07:40:22;;;;;;;;;9.80;8.40;;;;;2.84;77.00;99412.97;5023516;28;9580;-69
2021/12/20 07:42:51;;;;;;;;;14.40;14.40;;;;;2.78;77.20;99426.56;5008926;28;9579;-69
2021/12/20 07:45:20;;;;;;;;;12.60;10.20;;;;;2.81;77.45;99412.88;4992691;28;8884;-69
2021/12/20 07:47:51;;;;;;;;;15.60;11.20;;;;;2.84;77.04;99402.69;5017867;28;8879;-70
2021/12/20 07:50:21;;;;;;;;;10.80;10.00;;;;;2.88;76.88;99407.09;4972480;28;8885;-71
2021/12/20 07:52:50;;;;;;;;;20.40;20.40;;;;;2.91;76.91;99414.88;5005710;28;9564;-69
2021/12/20 07:55:19;;;;;;;;;16.60;15.00;;;;;3.11;76.23;99411.16;5005561;28;8862;-69
2021/12/20 07:57:48;;;;;;;;;7.00;7.00;;;;;3.10;75.58;99417.16;5021638;28;8869;-70
2021/12/20 08:00:17;;;;;;;;;8.40;7.20;;;;;3.00;75.73;99415.13;5028652;28;8825;-70
2021/12/20 08:02:47;;;;;;;;;12.20;10.80;;;;;3.04;76.25;99432.41;4980928;28;8892;-70
2021/12/20 08:05:19;;;;;;;;;12.60;12.40;;;;;2.94;76.65;99430.44;5029090;28;8887;-69
2021/12/20 08:07:50;;;;;;;;;11.00;9.60;;;;;2.97;76.76;99434.78;5029472;28;9579;-70
2021/12/20 08:10:20;;;;;;;;;11.40;10.20;;;;;3.02;77.02;99428.06;4992550;28;8848;-71
2021/12/20 08:12:49;;;;;;;;;14.60;11.80;;;;;3.00;76.88;99430.59;5009543;28;8824;-70
2021/12/20 08:15:19;;;;;;;;;11.60;11.60;;;;;2.92;77.23;99444.97;5009383;28;8852;-69
2021/12/20 08:17:47;;;;;;;;;13.00;10.80;;;;;2.88;77.27;99444.00;5008989;28;9008;-70
2021/12/20 08:20:18;;;;;;;;;16.80;16.20;;;;;2.80;77.86;99454.91;4976985;28;8827;-69
2021/12/20 08:22:47;;;;;;;;;20.40;17.00;;;;;2.83;78.06;99443.00;5009428;28;8866;-71
2021/12/20 08:25:18;;;;;;;;;16.40;16.40;;;;;2.79;78.02;99455.75;4997880;28;8864;-71
2021/12/20 08:27:48;;;;;;;;;12.60;12.60;;;;;2.69;78.38;99473.50;5029083;28;9681;-70
2021/12/20 08:30:17;;;;;;;;;13.80;11.80;;;;;2.60;78.93;99462.91;5028541;28;8846;-69
2021/12/20 08:32:46;;;;;;;;;20.00;16.00;;;;;2.63;78.99;99475.88;5009050;28;8924;-69
2021/12/20 08:35:15;;;;;;;;;13.00;11.40;;;;;2.66;78.68;99470.81;5041893;28;8865;-69
2021/12/20 08:37:46;;;;;;;;;11.80;8.00;;;;;2.63;78.67;99473.31;5001285;28;8853;-70
2021/12/20 08:40:17;;;;;;;;;18.80;13.80;;;;;2.68;78.96;99484.59;4992050;28;8958;-70
2021/12/20 08:42:46;;;;;;;;;15.40;15.40;;;;;2.66;79.19;99495.69;5023017;28;8851;-70
2021/12/20 08:45:17;;;;;;;;;8.40;8.00;;;;;2.62;79.40;99499.00;4991563;28;8952;-71
2021/12/20 08:47:51;;;;;;;;;15.60;12.60;;;;;2.70;79.41;99497.53;4991499;28;8873;-69
2021/12/20 08:50:22;;;;;;;;;12.20;11.00;;;;;2.69;79.68;99508.66;5005658;28;8958;-72
2021/12/20 08:52:54;;;;;;;;;14.80;13.20;;;;;2.73;78.94;99501.06;5005572;28;8850;-70
2021/12/20 08:55:24;;;;;;;;;11.00;10.20;;;;;2.70;79.21;99490.69;5011349;28;8846;-69
2021/12/20 08:57:53;;;;;;;;;17.80;16.60;;;;;2.85;78.77;99500.56;5010557;28;9585;-71
2021/12/20 09:00:25;;;;;;;;;7.80;7.20;;;;;2.80;78.32;99502.16;5011217;28;8858;-70
2021/12/20 09:02:54;;;;;;;;;16.80;13.80;;;;;2.87;77.97;99500.59;5042614;28;8873;-70
2021/12/20 09:05:24;;;;;;;;;14.60;13.60;;;;;2.88;78.05;99508.38;5011174;28;8850;-70
2021/12/20 09:07:56;;;;;;;;;18.40;17.00;;;;;2.96;77.60;99505.16;4991995;28;8934;-70
2021/12/20 09:10:25;;;;;;;;;14.00;14.00;;;;;2.90;77.71;99505.84;4990714;28;8856;-71
2021/12/20 09:12:54;;;;;;;;;15.60;13.00;;;;;2.94;77.43;99502.53;4989272;28;8864;-69
2021/12/20 09:15:22;;;;;;;;;13.40;13.00;;;;;3.00;76.95;99507.88;4991641;28;8849;-71
2021/12/20 09:17:54;;;;;;;;;9.20;7.00;;;;;2.94;77.07;99507.69;4991102;28;8960;-72
2021/12/20 09:20:27;;;;;;;;;13.40;13.20;;;;;3.06;76.37;99507.16;5006131;28;8880;-71
2021/12/20 09:23:04;;;;;;;;;13.00;11.80;;;;;3.07;76.32;99511.50;5022632;28;8922;-70
2021/12/20 09:25:34;;;;;;;;;22.80;20.40;;;;;3.21;76.11;99507.59;4991122;28;8892;-69
2021/12/20 09:28:08;;;;;;;;;15.60;13.60;;;;;3.45;74.37;99502.25;4990640;28;8860;-71
2021/12/20 09:30:38;;;;;;;;;11.80;11.40;;;;;3.46;73.33;99504.03;4990838;28;8971;-70
2021/12/20 09:33:07;;;;;;;;;10.00;10.00;;;;;3.47;72.14;99485.13;4990541;28;8891;-70
2021/12/20 09:35:36;;;;;;;;;12.60;7.40;;;;;3.27;71.11;99505.22;5021964;28;8849;-70
2021/12/20 09:38:10;;;;;;;;;9.80;9.80;;;;;3.20;70.13;99518.75;4990785;28;8856;-70
2021/12/20 09:40:42;;;;;;;;;4.20;4.00;;;;;3.21;69.25;99497.28;5022366;28;8909;-69
2021/12/20 09:43:13;;;;;;;;;4.00;4.00;;;;;3.22;68.43;99517.09;4990549;28;8970;-68
2021/12/20 09:45:45;;;;;;;;;10.40;10.00;;;;;3.30;68.21;99507.00;4990288;28;8934;-71
2021/12/20 09:48:14;;;;;;;;;7.00;7.00;;;;;3.19;67.03;99527.31;5021365;28;8918;-70
2021/12/20 09:50:43;;;;;;;;;6.20;5.00;;;;;3.33;66.93;99512.25;4990605;28;8856;-69
2021/12/20 09:53:14;;;;;;;;;7.60;7.00;;;;;3.37;66.10;99515.78;4990569;28;8863;-70
2021/12/20 09:55:46;;;;;;;;;7.60;6.20;;;;;3.47;65.95;99510.91;4990347;28;8868;-70
2021/12/20 09:58:16;;;;;;;;;8.80;6.60;;;;;3.47;65.72;99526.38;4990164;28;8872;-70
2021/12/20 10:00:44;;;;;;;;;6.80;6.80;;;;;3.59;65.17;99530.13;4990486;28;8862;-70
2021/12/20 10:03:14;;;;;;;;;8.00;5.40;;;;;3.46;63.85;99519.50;4990017;28;9676;-70
2021/12/20 10:05:43;;;;;;;;;6.40;4.20;;;;;3.49;64.84;99523.84;4972082;28;9607;-69
2021/12/20 10:08:16;;;;;;;;;2.00;2.00;;;;;3.53;63.44;99529.97;4990387;28;8877;-69
2021/12/20 10:10:48;;;;;;;;;7.20;6.20;;;;;3.50;63.76;99507.56;4990230;28;8853;-70
2021/12/20 10:13:22;;;;;;;;;4.80;4.80;;;;;3.46;63.46;99506.59;4990434;28;8860;-71
2021/12/20 10:15:52;;;;;;;;;7.20;5.60;;;;;3.55;63.61;99508.53;5021423;28;8853;-70
2021/12/20 10:18:21;;;;;;;;;8.40;8.40;;;;;3.62;62.50;99523.34;4989900;28;8868;-70
2021/12/20 10:20:52;;;;;;;;;9.80;9.80;;;;;3.61;62.75;99506.16;4989996;28;8869;-69
2021/12/20 10:23:24;;;;;;;;;7.60;7.40;;;;;3.77;61.39;99512.56;4989402;28;8869;-69
2021/12/20 10:25:55;;;;;;;;;7.00;6.40;;;;;3.69;61.64;99502.06;5021394;28;9621;-69
2021/12/20 10:28:35;;;;;;;;;8.60;8.60;;;;;3.76;61.76;99507.34;4989741;28;8934;-69
2021/12/20 10:31:07;;;;;;;;;1.80;1.80;;;;;3.59;60.97;99502.66;4989634;28;8852;-70
2021/12/20 10:33:36;;;;;;;;;8.00;8.00;;;;;3.69;60.83;99503.75;4989516;28;8861;-69
2021/12/20 10:36:08;;;;;;;;;11.00;5.40;;;;;3.67;60.56;99493.41;5021426;28;8863;-70
2021/12/20 10:38:41;;;;;;;;;6.20;6.20;;;;;3.75;60.84;99498.75;4992468;28;8866;-68
2021/12/20 10:41:13;;;;;;;;;4.20;4.20;;;;;3.78;60.00;99496.28;5009463;28;8850;-71
2021/12/20 10:43:49;;;;;;;;;6.60;6.60;;;;;3.76;59.79;99507.34;5009079;28;8873;-70
2021/12/20 10:46:20;;;;;;;;;8.00;7.00;;;;;3.84;59.67;99506.75;5009043;28;8862;-70
2021/12/20 10:48:52;;;;;;;;;1.20;1.20;;;;;3.76;58.98;99497.03;5009154;28;8938;-70
2021/12/20 10:51:26;;;;;;;;;4.60;4.00;;;;;3.81;58.82;99500.63;5009014;28;8861;-69
2021/12/20 10:54:01;;;;;;;;;5.00;5.00;;;;;3.88;58.98;99505.97;4990082;28;8857;-70
2021/12/20 10:56:33;;;;;;;;;5.40;5.40;;;;;4.05;59.55;99493.50;5008793;28;8870;-69
2021/12/20 10:59:08;;;;;;;;;5.80;5.00;;;;;4.04;58.17;99496.91;5021050;28;9041;-70
2021/12/20 11:04:24;;;;;;;;;4.00;4.00;;;;;4.01;58.06;99507.16;4989546;28;8880;-71
2021/12/20 11:09:42;;;;;;;;;5.40;5.00;;;;;3.98;58.04;99490.75;4992201;28;8856;-70
2021/12/20 11:12:13;;;;;;;;;14.20;10.20;;;;;3.98;58.93;99483.84;4988990;28;8876;-70
2021/12/20 11:14:46;;;;;;;;;13.80;9.80;;;;;3.78;59.58;99493.69;4988749;28;8859;-68
2021/12/20 11:17:17;;;;;;;;;7.40;7.20;;;;;3.78;59.39;99497.94;4988806;28;8947;-70
2021/12/20 11:19:47;;;;;;;;;10.40;10.40;;;;;3.88;59.63;99494.78;5019940;28;8994;-72
2021/12/20 11:22:17;;;;;;;;;6.60;6.60;;;;;3.86;58.88;99499.03;5020533;28;8878;-69
2021/12/20 11:24:50;;;;;;;;;7.00;5.80;;;;;3.68;58.25;99494.28;4989170;28;8919;-71
2021/12/20 11:27:21;;;;;;;;;8.60;7.80;;;;;3.60;58.73;99498.34;4988782;28;8868;-70
2021/12/20 11:29:53;;;;;;;;;5.80;5.80;;;;;3.57;58.07;99490.53;4988844;28;8877;-70
2021/12/20 11:32:23;;;;;;;;;5.40;5.40;;;;;3.52;58.28;99505.91;4972710;28;8917;-70
2021/12/20 11:34:52;;;;;;;;;5.00;3.60;;;;;3.56;58.27;99504.28;5039933;28;8850;-70
2021/12/20 11:37:24;;;;;;;;;4.60;4.00;;;;;3.50;58.41;99497.25;5008373;28;8849;-69
2021/12/20 11:39:55;;;;;;;;;4.00;4.00;;;;;3.49;58.98;99498.94;5008082;28;8854;-70
2021/12/20 11:42:25;;;;;;;;;9.20;8.40;;;;;3.51;59.26;99507.56;5023029;28;8877;-71
2021/12/20 11:44:56;;;;;;;;;5.40;5.40;;;;;3.58;57.99;99508.63;4989004;28;8891;-69
2021/12/20 11:47:31;;;;;;;;;7.20;7.20;;;;;3.66;59.29;99506.25;4988404;28;8944;-70
2021/12/20 11:50:02;;;;;;;;;8.00;4.60;;;;;3.81;58.78;99506.66;5019985;28;8888;-70
2021/12/20 11:52:34;;;;;;;;;7.80;6.60;;;;;3.94;58.54;99504.41;4985906;28;8857;-70
2021/12/20 11:55:19;;;;;;;;;7.80;5.80;;;;;3.95;58.29;99504.44;4988260;28;8865;-69
2021/12/20 11:57:49;;;;;;;;;13.80;12.20;;;;;4.04;58.49;99499.47;4988398;28;9563;-71
2021/12/20 12:00:24;;;;;;;;;6.40;6.40;;;;;4.04;57.67;99496.91;5019510;28;8849;-69
2021/12/20 12:02:55;;;;;;;;;5.00;5.00;;;;;3.85;57.97;99512.75;4969501;28;8856;-69
2021/12/20 12:05:35;;;;;;;;;7.80;4.60;;;;;3.75;57.53;99510.78;4986081;28;8845;-69
2021/12/20 12:08:28;;;;;;;;;7.00;7.00;;;;;3.74;57.53;99517.63;5019728;28;8861;-70
2021/12/20 12:11:02;;;;;;;;;9.40;8.00;;;;;3.67;57.08;99531.22;4988280;28;8840;-70